sensor_id;sensor_type;location;lat;lon;timestamp;P1;P2;P0
57798;PMS7003;43626;53.866;30.298;2023-03-13T00:03:44;3;2.4;1.4
57798;PMS7003;43626;53.866;30.298;2023-03-13T00:08:32;2.2;1.8;1
57798;PMS7003;43626;53.866;30.298;2023-03-13T00:13:44;2.4;1.2;0.4
57798;PMS7003;43626;53.866;30.298;2023-03-13T00:19:14;1.6;1.6;0.8
57798;PMS7003;43626;53.866;30.298;2023-03-13T00:24:14;1.6;1.6;0.6
57798;PMS7003;43626;53.866;30.298;2023-03-13T00:28:52;3;2;1
57798;PMS7003;43626;53.866;30.298;2023-03-13T00:33:53;2.6;2;0.6
57798;PMS7003;43626;53.866;30.298;2023-03-13T00:38:44;4.2;2.2;1
57798;PMS7003;43626;53.866;30.298;2023-03-13T00:44:02;2.6;1.8;1.2
57798;PMS7003;43626;53.866;30.298;2023-03-13T00:49:04;2.2;1.8;0.8
57798;PMS7003;43626;53.866;30.298;2023-03-13T00:53:32;2;1.8;0.6
57798;PMS7003;43626;53.866;30.298;2023-03-13T00:58:52;3.5;2.3;0.8
57798;PMS7003;43626;53.866;30.298;2023-03-13T01:03:43;2.2;1.8;1
57798;PMS7003;43626;53.866;30.298;2023-03-13T01:09:14;3.2;2.4;1.2
57798;PMS7003;43626;53.866;30.298;2023-03-13T01:14:15;3.2;1.8;1.2
57798;PMS7003;43626;53.866;30.298;2023-03-13T01:19:05;4.2;2.8;1.4
57798;PMS7003;43626;53.866;30.298;2023-03-13T01:23:52;3.2;2.4;1.4
57798;PMS7003;43626;53.866;30.298;2023-03-13T01:28:44;2.6;2.6;1.2
57798;PMS7003;43626;53.866;30.298;2023-03-13T01:34:04;4;1.8;1
57798;PMS7003;43626;53.866;30.298;2023-03-13T01:39:14;4;2.2;1
57798;PMS7003;43626;53.866;30.298;2023-03-13T01:43:44;3;2;1.2
57798;PMS7003;43626;53.866;30.298;2023-03-13T01:48:44;2.6;2.2;1
57798;PMS7003;43626;53.866;30.298;2023-03-13T01:53:32;2.2;1.6;1.4
57798;PMS7003;43626;53.866;30.298;2023-03-13T01:58:50;4.5;2.5;1.5
57798;PMS7003;43626;53.866;30.298;2023-03-13T02:04:14;3.4;3;1.4
57798;PMS7003;43626;53.866;30.298;2023-03-13T02:09:05;5;3.2;1.4
57798;PMS7003;43626;53.866;30.298;2023-03-13T02:13:50;3.6;3;1.8
57798;PMS7003;43626;53.866;30.298;2023-03-13T02:18:32;3.6;2.4;1.4
57798;PMS7003;43626;53.866;30.298;2023-03-13T02:24:06;4.2;2.8;1.4
57798;PMS7003;43626;53.866;30.298;2023-03-13T02:29:14;2.8;2;0.8
57798;PMS7003;43626;53.866;30.298;2023-03-13T02:33:36;3.2;2.6;1.2
57798;PMS7003;43626;53.866;30.298;2023-03-13T02:38:33;3;2.2;1
57798;PMS7003;43626;53.866;30.298;2023-03-13T02:43:54;3.4;2.8;1.2
57798;PMS7003;43626;53.866;30.298;2023-03-13T02:49:09;3;2.2;1.4
57798;PMS7003;43626;53.866;30.298;2023-03-13T02:54:15;3;2.6;1.6
57798;PMS7003;43626;53.866;30.298;2023-03-13T02:59:02;2.3;1.3;0.5
57798;PMS7003;43626;53.866;30.298;2023-03-13T03:03:32;3;2.4;1.4
57798;PMS7003;43626;53.866;30.298;2023-03-13T03:08:42;3.8;2.6;1.6
57798;PMS7003;43626;53.866;30.298;2023-03-13T03:14:04;4.8;2.6;1.6
57798;PMS7003;43626;53.866;30.298;2023-03-13T03:19:14;3.6;2.6;1.8
57798;PMS7003;43626;53.866;30.298;2023-03-13T03:24:02;3.6;2.4;1.8
57798;PMS7003;43626;53.866;30.298;2023-03-13T03:28:32;4.2;2.6;1.8
57798;PMS7003;43626;53.866;30.298;2023-03-13T03:33:32;3.6;3;1.8
57798;PMS7003;43626;53.866;30.298;2023-03-13T03:39:04;6.6;4.2;2.8
57798;PMS7003;43626;53.866;30.298;2023-03-13T03:44:14;6.8;5;3
57798;PMS7003;43626;53.866;30.298;2023-03-13T03:49:04;4.2;3.4;2.2
57798;PMS7003;43626;53.866;30.298;2023-03-13T03:53:52;6.6;3.2;2.2
57798;PMS7003;43626;53.866;30.298;2023-03-13T03:58:56;4.4;3.2;1.8
57798;PMS7003;43626;53.866;30.298;2023-03-13T04:04:02;5;3.8;2.3
57798;PMS7003;43626;53.866;30.298;2023-03-13T04:09:14;6.4;6.2;3.2
57798;PMS7003;43626;53.866;30.298;2023-03-13T04:14:02;8;6;4
57798;PMS7003;43626;53.866;30.298;2023-03-13T04:18:52;12.8;10.4;6.8
57798;PMS7003;43626;53.866;30.298;2023-03-13T04:23:32;9.6;7.2;5
57798;PMS7003;43626;53.866;30.298;2023-03-13T04:29:04;9.2;7.2;4
57798;PMS7003;43626;53.866;30.298;2023-03-13T04:34:12;5.6;4.6;2
57798;PMS7003;43626;53.866;30.298;2023-03-13T04:39:08;5.2;3.6;2.2
57798;PMS7003;43626;53.866;30.298;2023-03-13T04:43:50;3.8;3.8;2.4
57798;PMS7003;43626;53.866;30.298;2023-03-13T04:48:32;6.8;6;2.8
57798;PMS7003;43626;53.866;30.298;2023-03-13T04:54:04;6.8;4.8;2.8
57798;PMS7003;43626;53.866;30.298;2023-03-13T04:58:52;4.4;2.6;1.8
57798;PMS7003;43626;53.866;30.298;2023-03-13T05:04:00;2.8;2.8;1.8
57798;PMS7003;43626;53.866;30.298;2023-03-13T05:08:50;4.8;2.8;1.8
57798;PMS7003;43626;53.866;30.298;2023-03-13T05:13:40;4.2;2.6;1.8
57798;PMS7003;43626;53.866;30.298;2023-03-13T05:18:50;8.2;5.8;3.4
57798;PMS7003;43626;53.866;30.298;2023-03-13T05:24:12;12;9;5.2
57798;PMS7003;43626;53.866;30.298;2023-03-13T05:29:04;8.2;6.8;4
57798;PMS7003;43626;53.866;30.298;2023-03-13T05:33:54;5.2;4;2.6
57798;PMS7003;43626;53.866;30.298;2023-03-13T05:38:32;5;4.2;2.8
57798;PMS7003;43626;53.866;30.298;2023-03-13T05:44:02;3.6;3.4;1.8
57798;PMS7003;43626;53.866;30.298;2023-03-13T05:49:16;4;2.8;1.4
57798;PMS7003;43626;53.866;30.298;2023-03-13T05:54:04;4.6;4;1.6
57798;PMS7003;43626;53.866;30.298;2023-03-13T05:58:40;3.4;3;1.6
57798;PMS7003;43626;53.866;30.298;2023-03-13T06:03:32;4;2.3;1
57798;PMS7003;43626;53.866;30.298;2023-03-13T06:08:32;4;3.4;2
57798;PMS7003;43626;53.866;30.298;2023-03-13T06:14:14;6;4.8;2.6
57798;PMS7003;43626;53.866;30.298;2023-03-13T06:19:02;2.2;2;1.2
57798;PMS7003;43626;53.866;30.298;2023-03-13T06:23:50;14.4;11.2;5.4
57798;PMS7003;43626;53.866;30.298;2023-03-13T06:28:40;19;14.6;8.2
57798;PMS7003;43626;53.866;30.298;2023-03-13T06:33:51;9.6;7.6;3.2
57798;PMS7003;43626;53.866;30.298;2023-03-13T06:39:14;10.4;8.4;4.4
57798;PMS7003;43626;53.866;30.298;2023-03-13T06:44:02;10;7.2;4.2
57798;PMS7003;43626;53.866;30.298;2023-03-13T06:48:52;4.2;3.4;1.8
57798;PMS7003;43626;53.866;30.298;2023-03-13T06:53:42;5.4;4;2.6
57798;PMS7003;43626;53.866;30.298;2023-03-13T06:58:52;5.2;3.8;2.4
57798;PMS7003;43626;53.866;30.298;2023-03-13T07:04:12;2.3;2;1
57798;PMS7003;43626;53.866;30.298;2023-03-13T07:08:50;1.8;1.6;0.6
57798;PMS7003;43626;53.866;30.298;2023-03-13T07:13:32;1.4;1.2;0.6
57798;PMS7003;43626;53.866;30.298;2023-03-13T07:18:33;1.6;1;0.4
57798;PMS7003;43626;53.866;30.298;2023-03-13T07:23:50;2.8;2.2;1.2
57798;PMS7003;43626;53.866;30.298;2023-03-13T07:29:14;2.8;1.4;0.4
57798;PMS7003;43626;53.866;30.298;2023-03-13T07:34:12;3;1.8;0.8
57798;PMS7003;43626;53.866;30.298;2023-03-13T07:38:52;3;1.6;0.8
57798;PMS7003;43626;53.866;30.298;2023-03-13T07:43:32;2.6;1.8;1
57798;PMS7003;43626;53.866;30.298;2023-03-13T07:48:54;4.4;2.4;1
57798;PMS7003;43626;53.866;30.298;2023-03-13T07:54:14;3.4;1.6;0.4
57798;PMS7003;43626;53.866;30.298;2023-03-13T07:59:04;1.8;1.8;0.6
57798;PMS7003;43626;53.866;30.298;2023-03-13T08:03:54;2.3;1.3;0.5
57798;PMS7003;43626;53.866;30.298;2023-03-13T08:08:32;2.2;1.6;0.8
57798;PMS7003;43626;53.866;30.298;2023-03-13T08:13:52;2.4;1.8;0.8
57798;PMS7003;43626;53.866;30.298;2023-03-13T08:19:14;2.6;1.4;0.6
57798;PMS7003;43626;53.866;30.298;2023-03-13T08:24:05;1;0.8;0
57798;PMS7003;43626;53.866;30.298;2023-03-13T08:28:43;1.2;0.8;0.4
57798;PMS7003;43626;53.866;30.298;2023-03-13T08:33:42;1.6;0.8;0.2
57798;PMS7003;43626;53.866;30.298;2023-03-13T08:38:32;1.2;1;0
57798;PMS7003;43626;53.866;30.298;2023-03-13T08:44:04;1.4;0.8;0.2
57798;PMS7003;43626;53.866;30.298;2023-03-13T08:49:02;1.6;1.2;0.6
57798;PMS7003;43626;53.866;30.298;2023-03-13T08:53:52;1.2;1.2;0.2
57798;PMS7003;43626;53.866;30.298;2023-03-13T08:58:53;2;1.4;0.2
57798;PMS7003;43626;53.866;30.298;2023-03-13T09:04:12;1.8;1.6;0.4
57798;PMS7003;43626;53.866;30.298;2023-03-13T09:09:04;2;1.8;0.8
57798;PMS7003;43626;53.866;30.298;2023-03-13T09:13:49;2.4;1.2;0
57798;PMS7003;43626;53.866;30.298;2023-03-13T09:19:06;4;2;0.8
57798;PMS7003;43626;53.866;30.298;2023-03-13T09:23:40;2.8;2.2;0.8
57798;PMS7003;43626;53.866;30.298;2023-03-13T09:29:14;6.2;5.2;2
57798;PMS7003;43626;53.866;30.298;2023-03-13T09:33:45;7.8;4.6;2.4
57798;PMS7003;43626;53.866;30.298;2023-03-13T09:38:46;8.2;6.4;2.4
57798;PMS7003;43626;53.866;30.298;2023-03-13T09:44:03;4.8;3.8;1.4
57798;PMS7003;43626;53.866;30.298;2023-03-13T09:48:53;6.4;5;2
57798;PMS7003;43626;53.866;30.298;2023-03-13T09:54:16;12;8.6;3.8
57798;PMS7003;43626;53.866;30.298;2023-03-13T09:59:05;11;8.6;3.8
57798;PMS7003;43626;53.866;30.298;2023-03-13T10:03:52;3.2;2.6;1.2
57798;PMS7003;43626;53.866;30.298;2023-03-13T10:08:56;1.8;1.8;1.3
57798;PMS7003;43626;53.866;30.298;2023-03-13T10:13:33;2.6;1.6;0.8
57798;PMS7003;43626;53.866;30.298;2023-03-13T10:19:15;1.6;1;0.2
57798;PMS7003;43626;53.866;30.298;2023-03-13T10:24:10;0.6;0.6;0.2
57798;PMS7003;43626;53.866;30.298;2023-03-13T10:28:38;2.2;1.4;0.2
57798;PMS7003;43626;53.866;30.298;2023-03-13T10:34:06;2.6;0.8;0.2
57798;PMS7003;43626;53.866;30.298;2023-03-13T10:38:33;1.4;1.2;0.8
57798;PMS7003;43626;53.866;30.298;2023-03-13T10:44:17;3;2;1
57798;PMS7003;43626;53.866;30.298;2023-03-13T10:48:46;4;3.4;1.6
57798;PMS7003;43626;53.866;30.298;2023-03-13T10:53:33;4;3.2;1.8
57798;PMS7003;43626;53.866;30.298;2023-03-13T10:59:04;5.4;3.8;2.4
57798;PMS7003;43626;53.866;30.298;2023-03-13T11:03:45;3.8;3.4;1.8
57798;PMS7003;43626;53.866;30.298;2023-03-13T11:09:16;4.3;3.5;2
57798;PMS7003;43626;53.866;30.298;2023-03-13T11:14:11;2;2;1
57798;PMS7003;43626;53.866;30.298;2023-03-13T11:18:44;3.4;2.2;1
57798;PMS7003;43626;53.866;30.298;2023-03-13T11:24:09;4;2.8;1.6
57798;PMS7003;43626;53.866;30.298;2023-03-13T11:28:37;4.6;2.6;1.6
57798;PMS7003;43626;53.866;30.298;2023-03-13T11:34:16;4.4;3;1.6
57798;PMS7003;43626;53.866;30.298;2023-03-13T11:39:23;3.4;3;1.8
57798;PMS7003;43626;53.866;30.298;2023-03-13T11:43:49;4.2;3.4;2
57798;PMS7003;43626;53.866;30.298;2023-03-13T11:50:14;4;2.8;2
57798;PMS7003;43626;53.866;30.298;2023-03-13T11:53:49;3.6;3.2;2
57798;PMS7003;43626;53.866;30.298;2023-03-13T11:59:24;3.2;3.2;1.6
57798;PMS7003;43626;53.866;30.298;2023-03-13T12:04:09;3.4;3.2;1.6
57798;PMS7003;43626;53.866;30.298;2023-03-13T12:08:33;4.5;3.5;1.8
57798;PMS7003;43626;53.866;30.298;2023-03-13T12:14:15;6;4.2;2.4
57798;PMS7003;43626;53.866;30.298;2023-03-13T12:18:41;5.8;4.2;2.6
57798;PMS7003;43626;53.866;30.298;2023-03-13T12:24:18;6.6;4.4;2.6
57798;PMS7003;43626;53.866;30.298;2023-03-13T12:29:07;5.2;4.4;2.8
57798;PMS7003;43626;53.866;30.298;2023-03-13T12:33:51;4.6;4.2;2.4
57798;PMS7003;43626;53.866;30.298;2023-03-13T12:39:08;8;6;4
57798;PMS7003;43626;53.866;30.298;2023-03-13T12:43:41;7;5.4;3.6
57798;PMS7003;43626;53.866;30.298;2023-03-13T12:49:20;5.2;4.6;2.4
57798;PMS7003;43626;53.866;30.298;2023-03-13T12:54:07;5;4.8;2.8
57798;PMS7003;43626;53.866;30.298;2023-03-13T12:58:44;5.4;4.8;3
57798;PMS7003;43626;53.866;30.298;2023-03-13T13:04:10;8;7;4.2
57798;PMS7003;43626;53.866;30.298;2023-03-13T13:08:45;15.5;13.5;7.3
57798;PMS7003;43626;53.866;30.298;2023-03-13T13:15:02;15.8;13.4;7.4
57798;PMS7003;43626;53.866;30.298;2023-03-13T13:23:48;7.6;6.2;3.6
57798;PMS7003;43626;53.866;30.298;2023-03-13T13:33:33;10.2;9.4;5.6
57798;PMS7003;43626;53.866;30.298;2023-03-13T13:39:21;9;6.4;4.2
57798;PMS7003;43626;53.866;30.298;2023-03-13T13:44:31;11.2;10.4;5.8
57798;PMS7003;43626;53.866;30.298;2023-03-13T13:48:32;12.8;9.6;6.4
57798;PMS7003;43626;53.866;30.298;2023-03-13T13:54:30;10.6;9.6;5.8
57798;PMS7003;43626;53.866;30.298;2023-03-13T13:58:32;10.8;9.2;5.2
57798;PMS7003;43626;53.866;30.298;2023-03-13T14:04:18;12.6;10.4;6.6
57798;PMS7003;43626;53.866;30.298;2023-03-13T14:09:12;13.2;11.6;7.4
57798;PMS7003;43626;53.866;30.298;2023-03-13T14:13:42;12;11;7
57798;PMS7003;43626;53.866;30.298;2023-03-13T14:19:19;15;12;7.6
57798;PMS7003;43626;53.866;30.298;2023-03-13T14:23:45;14;12;7
57798;PMS7003;43626;53.866;30.298;2023-03-13T14:29:17;20.6;17.6;10.4
57798;PMS7003;43626;53.866;30.298;2023-03-13T14:33:59;11.8;10.4;6.8
57798;PMS7003;43626;53.866;30.298;2023-03-13T14:38:51;9;8.2;5.2
57798;PMS7003;43626;53.866;30.298;2023-03-13T14:44:15;10;9;5.8
57798;PMS7003;43626;53.866;30.298;2023-03-13T14:48:59;12.2;9.8;6.2
57798;PMS7003;43626;53.866;30.298;2023-03-13T14:54:24;13;10.4;7.2
57798;PMS7003;43626;53.866;30.298;2023-03-13T14:59:14;20.2;17;10.8
57798;PMS7003;43626;53.866;30.298;2023-03-13T15:04:34;16.2;11.6;7.2
57798;PMS7003;43626;53.866;30.298;2023-03-13T15:09:13;12;10.2;6.8
57798;PMS7003;43626;53.866;30.298;2023-03-13T15:13:56;20.5;14;8.3
57798;PMS7003;43626;53.866;30.298;2023-03-13T15:19:14;15.2;11.6;7.2
57798;PMS7003;43626;53.866;30.298;2023-03-13T15:24:10;8.4;7.6;5.4
57798;PMS7003;43626;53.866;30.298;2023-03-13T15:28:32;8.2;7.6;5.2
57798;PMS7003;43626;53.866;30.298;2023-03-13T15:34:08;9.4;8.2;5.2
57798;PMS7003;43626;53.866;30.298;2023-03-13T15:38:32;11;8.6;5.6
57798;PMS7003;43626;53.866;30.298;2023-03-13T15:44:18;9.8;8.8;6.2
57798;PMS7003;43626;53.866;30.298;2023-03-13T15:48:58;11;8.6;6
57798;PMS7003;43626;53.866;30.298;2023-03-13T15:53:33;11.8;9.8;6.4
57798;PMS7003;43626;53.866;30.298;2023-03-13T15:59:16;11;9.8;6.6
57798;PMS7003;43626;53.866;30.298;2023-03-13T16:03:42;10.2;9.2;6.4
57798;PMS7003;43626;53.866;30.298;2023-03-13T16:09:18;10.6;8.8;6
57798;PMS7003;43626;53.866;30.298;2023-03-13T16:14:10;9;8.3;6.3
57798;PMS7003;43626;53.866;30.298;2023-03-13T16:18:51;9.2;8.6;5.8
57798;PMS7003;43626;53.866;30.298;2023-03-13T16:24:10;12.6;10.8;7.2
57798;PMS7003;43626;53.866;30.298;2023-03-13T16:28:45;11.4;10.2;6.2
57798;PMS7003;43626;53.866;30.298;2023-03-13T16:34:02;10.8;9.8;6.4
57798;PMS7003;43626;53.866;30.298;2023-03-13T16:39:09;13.8;10.6;6
57798;PMS7003;43626;53.866;30.298;2023-03-13T16:43:50;12.2;10;6.2
57798;PMS7003;43626;53.866;30.298;2023-03-13T16:49:09;14;11.2;6.6
57798;PMS7003;43626;53.866;30.298;2023-03-13T16:53:43;12.4;11.8;7.4
57798;PMS7003;43626;53.866;30.298;2023-03-13T16:58:56;14.4;13;8
57798;PMS7003;43626;53.866;30.298;2023-03-13T17:03:32;14.6;13.6;9
57798;PMS7003;43626;53.866;30.298;2023-03-13T17:08:32;17.6;14.8;9.8
57798;PMS7003;43626;53.866;30.298;2023-03-13T17:14:10;17.5;16.5;10
57798;PMS7003;43626;53.866;30.298;2023-03-13T17:18:43;17.6;16.6;11.2
57798;PMS7003;43626;53.866;30.298;2023-03-13T17:24:14;17.2;15;10.4
57798;PMS7003;43626;53.866;30.298;2023-03-13T17:29:09;19;16.6;10.6
57798;PMS7003;43626;53.866;30.298;2023-03-13T17:33:50;20;16.4;11.2
57798;PMS7003;43626;53.866;30.298;2023-03-13T17:39:11;23;20.4;13.2
57798;PMS7003;43626;53.866;30.298;2023-03-13T17:43:42;27.8;22.6;13.6
57798;PMS7003;43626;53.866;30.298;2023-03-13T17:49:04;24.2;20.8;13.8
57798;PMS7003;43626;53.866;30.298;2023-03-13T17:54:04;26.4;22.6;14.4
57798;PMS7003;43626;53.866;30.298;2023-03-13T17:58:53;27;24;14.8
57798;PMS7003;43626;53.866;30.298;2023-03-13T18:04:18;28.4;24.4;15
57798;PMS7003;43626;53.866;30.298;2023-03-13T18:08:42;30.8;24.8;15
57798;PMS7003;43626;53.866;30.298;2023-03-13T18:13:42;26;24;14.8
57798;PMS7003;43626;53.866;30.298;2023-03-13T18:19:12;28.2;23.6;15
57798;PMS7003;43626;53.866;30.298;2023-03-13T18:24:16;28;25;14.6
57798;PMS7003;43626;53.866;30.298;2023-03-13T18:29:19;27.2;24.2;15
57798;PMS7003;43626;53.866;30.298;2023-03-13T18:34:03;28.6;24;13.8
57798;PMS7003;43626;53.866;30.298;2023-03-13T18:39:11;28;23.8;14.8
57798;PMS7003;43626;53.866;30.298;2023-03-13T18:43:54;28.2;24.8;15
57798;PMS7003;43626;53.866;30.298;2023-03-13T18:48:53;27.6;23.6;15
57798;PMS7003;43626;53.866;30.298;2023-03-13T18:53:32;30;24.8;14.8
57798;PMS7003;43626;53.866;30.298;2023-03-13T18:59:20;28.6;23.8;14.6
57798;PMS7003;43626;53.866;30.298;2023-03-13T19:04:18;27.6;23.6;14.8
57798;PMS7003;43626;53.866;30.298;2023-03-13T19:08:42;28.6;25.4;15.4
57798;PMS7003;43626;53.866;30.298;2023-03-13T19:14:07;27.6;24.4;15.6
57798;PMS7003;43626;53.866;30.298;2023-03-13T19:18:56;29.8;23.8;15
57798;PMS7003;43626;53.866;30.298;2023-03-13T19:23:32;28.4;24.6;15.2
57798;PMS7003;43626;53.866;30.298;2023-03-13T19:28:48;25.4;21.4;14.4
57798;PMS7003;43626;53.866;30.298;2023-03-13T19:34:16;29;23.6;13.6
57798;PMS7003;43626;53.866;30.298;2023-03-13T19:38:32;30;25;15.6
57798;PMS7003;43626;53.866;30.298;2023-03-13T19:43:32;27.2;24.6;14.4
57798;PMS7003;43626;53.866;30.298;2023-03-13T19:49:19;26;23.8;14
57798;PMS7003;43626;53.866;30.298;2023-03-13T19:53:54;28;23.6;14.4
57798;PMS7003;43626;53.866;30.298;2023-03-13T19:58:55;27.6;23;13.8
57798;PMS7003;43626;53.866;30.298;2023-03-13T20:03:46;24.4;21.4;13.6
57798;PMS7003;43626;53.866;30.298;2023-03-13T20:09:18;29.8;22.6;14.4
57798;PMS7003;43626;53.866;30.298;2023-03-13T20:14:09;22.4;19.2;12
57798;PMS7003;43626;53.866;30.298;2023-03-13T20:18:54;23.5;20;13.8
57798;PMS7003;43626;53.866;30.298;2023-03-13T20:23:48;26.6;21.6;12.8
57798;PMS7003;43626;53.866;30.298;2023-03-13T20:29:02;23.4;19.6;12.6
57798;PMS7003;43626;53.866;30.298;2023-03-13T20:33:33;25.6;22.4;13.4
57798;PMS7003;43626;53.866;30.298;2023-03-13T20:39:18;25.4;22;13
57798;PMS7003;43626;53.866;30.298;2023-03-13T20:43:33;22.4;20.4;12.4
57798;PMS7003;43626;53.866;30.298;2023-03-13T20:48:54;22;18.8;12.2
57798;PMS7003;43626;53.866;30.298;2023-03-13T20:54:19;23;19.8;12.4
57798;PMS7003;43626;53.866;30.298;2023-03-13T20:59:04;24.4;18.6;11.8
57798;PMS7003;43626;53.866;30.298;2023-03-13T21:03:33;23;17.8;12
57798;PMS7003;43626;53.866;30.298;2023-03-13T21:09:18;23.6;20.2;13.2
57798;PMS7003;43626;53.866;30.298;2023-03-13T21:13:32;24.8;19.6;12.2
57798;PMS7003;43626;53.866;30.298;2023-03-13T21:18:48;24.3;19.5;11.8
57798;PMS7003;43626;53.866;30.298;2023-03-13T21:24:00;19;16.2;10.8
57798;PMS7003;43626;53.866;30.298;2023-03-13T21:29:18;23.6;18.8;11.8
57798;PMS7003;43626;53.866;30.298;2023-03-13T21:33:48;21;18.8;11
57798;PMS7003;43626;53.866;30.298;2023-03-13T21:39:03;20.4;17.8;11.6
57798;PMS7003;43626;53.866;30.298;2023-03-13T21:44:10;21.6;18;12
57798;PMS7003;43626;53.866;30.298;2023-03-13T21:49:18;20.4;17.4;11
57798;PMS7003;43626;53.866;30.298;2023-03-13T21:53:54;21.8;17.6;11.4
57798;PMS7003;43626;53.866;30.298;2023-03-13T21:58:44;19;17.6;11.4
57798;PMS7003;43626;53.866;30.298;2023-03-13T22:04:18;23.2;17.6;10.8
57798;PMS7003;43626;53.866;30.298;2023-03-13T22:09:18;21;16.8;11.2
57798;PMS7003;43626;53.866;30.298;2023-03-13T22:13:32;20;16.4;10.8
57798;PMS7003;43626;53.866;30.298;2023-03-13T22:19:16;21.8;18.8;10.8
57798;PMS7003;43626;53.866;30.298;2023-03-13T22:23:54;19.4;17.2;11
57798;PMS7003;43626;53.866;30.298;2023-03-13T22:28:45;17.6;14.6;10.6
57798;PMS7003;43626;53.866;30.298;2023-03-13T22:33:48;17.2;14.8;10.2
57798;PMS7003;43626;53.866;30.298;2023-03-13T22:39:16;20.8;16.6;10.8
57798;PMS7003;43626;53.866;30.298;2023-03-13T22:43:44;18.6;15.6;10.8
57798;PMS7003;43626;53.866;30.298;2023-03-13T22:48:54;21.6;17.4;11
57798;PMS7003;43626;53.866;30.298;2023-03-13T22:54:14;18.4;16.2;10
57798;PMS7003;43626;53.866;30.298;2023-03-13T22:58:42;19;16.2;9.6
57798;PMS7003;43626;53.866;30.298;2023-03-13T23:03:43;18.8;16;9
57798;PMS7003;43626;53.866;30.298;2023-03-13T23:08:42;18.6;16;10.2
57798;PMS7003;43626;53.866;30.298;2023-03-13T23:14:14;21.4;17.2;10.8
57798;PMS7003;43626;53.866;30.298;2023-03-13T23:19:08;18.3;16.8;11
57798;PMS7003;43626;53.866;30.298;2023-03-13T23:23:54;22.8;17.8;11.6
57798;PMS7003;43626;53.866;30.298;2023-03-13T23:28:46;19.8;16.8;10
57798;PMS7003;43626;53.866;30.298;2023-03-13T23:33:58;18.2;16.2;10
57798;PMS7003;43626;53.866;30.298;2023-03-13T23:38:49;20.6;16.4;10.4
57798;PMS7003;43626;53.866;30.298;2023-03-13T23:43:32;22.8;17.8;9.6
57798;PMS7003;43626;53.866;30.298;2023-03-13T23:48:43;20;17;11.2
57798;PMS7003;43626;53.866;30.298;2023-03-13T23:53:34;17.6;15.2;9.2
57798;PMS7003;43626;53.866;30.298;2023-03-13T23:59:14;20.2;15.6;9.4
